sensor_id;sensor_type;location;lat;lon;timestamp;temperature;humidity
22950;DHT22;11641;51.018;4.474;2023-04-15T00:01:26;12.20;99.90
22950;DHT22;11641;51.018;4.474;2023-04-15T00:03:53;12.20;99.90
22950;DHT22;11641;51.018;4.474;2023-04-15T00:06:20;12.20;99.90
22950;DHT22;11641;51.018;4.474;2023-04-15T00:08:46;12.20;99.90
22950;DHT22;11641;51.018;4.474;2023-04-15T00:11:13;12.20;99.90
22950;DHT22;11641;51.018;4.474;2023-04-15T00:13:39;12.20;99.90
22950;DHT22;11641;51.018;4.474;2023-04-15T00:16:06;12.20;99.90
22950;DHT22;11641;51.018;4.474;2023-04-15T00:18:35;12.20;99.90
22950;DHT22;11641;51.018;4.474;2023-04-15T00:21:04;12.20;99.90
22950;DHT22;11641;51.018;4.474;2023-04-15T00:23:30;12.30;99.90
22950;DHT22;11641;51.018;4.474;2023-04-15T00:25:56;12.30;99.90
22950;DHT22;11641;51.018;4.474;2023-04-15T00:28:21;12.30;99.90
22950;DHT22;11641;51.018;4.474;2023-04-15T00:30:47;12.40;99.90
22950;DHT22;11641;51.018;4.474;2023-04-15T00:33:17;12.30;99.90
22950;DHT22;11641;51.018;4.474;2023-04-15T00:35:45;12.40;99.90
22950;DHT22;11641;51.018;4.474;2023-04-15T00:38:13;12.40;99.90
22950;DHT22;11641;51.018;4.474;2023-04-15T00:40:39;12.40;99.90
22950;DHT22;11641;51.018;4.474;2023-04-15T00:43:05;12.40;99.90
22950;DHT22;11641;51.018;4.474;2023-04-15T00:45:31;12.40;99.90
22950;DHT22;11641;51.018;4.474;2023-04-15T00:47:57;12.40;99.90
22950;DHT22;11641;51.018;4.474;2023-04-15T00:50:25;12.30;99.90
22950;DHT22;11641;51.018;4.474;2023-04-15T00:52:51;12.30;99.90
22950;DHT22;11641;51.018;4.474;2023-04-15T00:55:19;12.30;99.90
22950;DHT22;11641;51.018;4.474;2023-04-15T00:57:45;12.30;99.90
22950;DHT22;11641;51.018;4.474;2023-04-15T01:00:11;12.30;99.90
22950;DHT22;11641;51.018;4.474;2023-04-15T01:02:37;12.30;99.90
22950;DHT22;11641;51.018;4.474;2023-04-15T01:05:04;12.30;99.90
22950;DHT22;11641;51.018;4.474;2023-04-15T01:07:30;12.30;99.90
22950;DHT22;11641;51.018;4.474;2023-04-15T01:09:58;12.20;99.90
22950;DHT22;11641;51.018;4.474;2023-04-15T01:12:25;12.20;99.90
22950;DHT22;11641;51.018;4.474;2023-04-15T01:14:52;12.20;99.90
22950;DHT22;11641;51.018;4.474;2023-04-15T01:17:18;12.10;99.90
22950;DHT22;11641;51.018;4.474;2023-04-15T01:19:46;12.00;99.90
22950;DHT22;11641;51.018;4.474;2023-04-15T01:22:12;12.00;99.90
22950;DHT22;11641;51.018;4.474;2023-04-15T01:24:40;12.00;99.90
22950;DHT22;11641;51.018;4.474;2023-04-15T01:27:08;12.00;99.90
22950;DHT22;11641;51.018;4.474;2023-04-15T01:29:37;12.00;99.90
22950;DHT22;11641;51.018;4.474;2023-04-15T01:32:02;12.10;99.90
22950;DHT22;11641;51.018;4.474;2023-04-15T01:34:28;12.10;99.90
22950;DHT22;11641;51.018;4.474;2023-04-15T01:36:57;12.10;99.90
22950;DHT22;11641;51.018;4.474;2023-04-15T01:39:22;12.00;99.90
22950;DHT22;11641;51.018;4.474;2023-04-15T01:41:48;11.90;99.90
22950;DHT22;11641;51.018;4.474;2023-04-15T01:44:14;11.80;99.90
22950;DHT22;11641;51.018;4.474;2023-04-15T01:46:40;11.90;99.90
22950;DHT22;11641;51.018;4.474;2023-04-15T01:49:05;11.90;99.90
22950;DHT22;11641;51.018;4.474;2023-04-15T01:51:34;11.90;99.90
22950;DHT22;11641;51.018;4.474;2023-04-15T01:54:02;11.90;99.90
22950;DHT22;11641;51.018;4.474;2023-04-15T01:56:28;11.90;99.90
22950;DHT22;11641;51.018;4.474;2023-04-15T01:58:56;11.90;99.90
22950;DHT22;11641;51.018;4.474;2023-04-15T02:01:22;11.70;99.90
22950;DHT22;11641;51.018;4.474;2023-04-15T02:03:50;11.70;99.90
22950;DHT22;11641;51.018;4.474;2023-04-15T02:06:15;11.70;99.90
22950;DHT22;11641;51.018;4.474;2023-04-15T02:08:41;11.70;99.90
22950;DHT22;11641;51.018;4.474;2023-04-15T02:11:07;11.40;99.90
22950;DHT22;11641;51.018;4.474;2023-04-15T02:13:33;11.30;99.90
22950;DHT22;11641;51.018;4.474;2023-04-15T02:15:59;11.10;99.90
22950;DHT22;11641;51.018;4.474;2023-04-15T02:18:25;11.10;99.90
22950;DHT22;11641;51.018;4.474;2023-04-15T02:20:53;11.10;99.90
22950;DHT22;11641;51.018;4.474;2023-04-15T02:23:18;11.00;99.90
22950;DHT22;11641;51.018;4.474;2023-04-15T02:25:46;10.80;99.90
22950;DHT22;11641;51.018;4.474;2023-04-15T02:28:15;10.60;99.90
22950;DHT22;11641;51.018;4.474;2023-04-15T02:30:40;10.50;99.90
22950;DHT22;11641;51.018;4.474;2023-04-15T02:33:06;10.70;99.90
22950;DHT22;11641;51.018;4.474;2023-04-15T02:35:32;10.90;99.90
22950;DHT22;11641;51.018;4.474;2023-04-15T02:37:57;11.00;99.90
22950;DHT22;11641;51.018;4.474;2023-04-15T02:40:23;11.10;99.90
22950;DHT22;11641;51.018;4.474;2023-04-15T02:42:49;11.10;99.90
22950;DHT22;11641;51.018;4.474;2023-04-15T02:45:15;11.10;99.90
22950;DHT22;11641;51.018;4.474;2023-04-15T02:47:45;11.20;99.90
22950;DHT22;11641;51.018;4.474;2023-04-15T02:50:12;11.30;99.90
22950;DHT22;11641;51.018;4.474;2023-04-15T02:52:39;11.20;99.90
22950;DHT22;11641;51.018;4.474;2023-04-15T02:55:06;11.20;99.90
22950;DHT22;11641;51.018;4.474;2023-04-15T02:57:34;11.40;99.90
22950;DHT22;11641;51.018;4.474;2023-04-15T03:00:03;11.50;99.90
22950;DHT22;11641;51.018;4.474;2023-04-15T03:02:33;11.60;99.90
22950;DHT22;11641;51.018;4.474;2023-04-15T03:04:59;11.40;99.90
22950;DHT22;11641;51.018;4.474;2023-04-15T03:07:25;11.40;99.90
22950;DHT22;11641;51.018;4.474;2023-04-15T03:09:51;11.40;99.90
22950;DHT22;11641;51.018;4.474;2023-04-15T03:12:16;11.50;99.90
22950;DHT22;11641;51.018;4.474;2023-04-15T03:14:45;11.50;99.90
22950;DHT22;11641;51.018;4.474;2023-04-15T03:17:11;11.50;99.90
22950;DHT22;11641;51.018;4.474;2023-04-15T03:19:41;11.50;99.90
22950;DHT22;11641;51.018;4.474;2023-04-15T03:22:06;11.50;99.90
22950;DHT22;11641;51.018;4.474;2023-04-15T03:24:32;11.50;99.90
22950;DHT22;11641;51.018;4.474;2023-04-15T03:27:00;11.60;99.90
22950;DHT22;11641;51.018;4.474;2023-04-15T03:29:28;11.50;99.90
22950;DHT22;11641;51.018;4.474;2023-04-15T03:31:54;11.40;99.90
22950;DHT22;11641;51.018;4.474;2023-04-15T03:34:21;11.30;99.90
22950;DHT22;11641;51.018;4.474;2023-04-15T03:36:47;11.20;99.90
22950;DHT22;11641;51.018;4.474;2023-04-15T03:39:13;11.20;99.90
22950;DHT22;11641;51.018;4.474;2023-04-15T03:41:41;11.30;99.90
22950;DHT22;11641;51.018;4.474;2023-04-15T03:44:06;11.30;99.90
22950;DHT22;11641;51.018;4.474;2023-04-15T03:46:34;11.30;99.90
22950;DHT22;11641;51.018;4.474;2023-04-15T03:49:01;11.20;99.90
22950;DHT22;11641;51.018;4.474;2023-04-15T03:51:26;11.20;99.90
22950;DHT22;11641;51.018;4.474;2023-04-15T03:53:52;11.20;99.90
22950;DHT22;11641;51.018;4.474;2023-04-15T03:56:18;11.30;99.90
22950;DHT22;11641;51.018;4.474;2023-04-15T03:58:43;11.30;99.90
22950;DHT22;11641;51.018;4.474;2023-04-15T04:01:09;11.20;99.90
22950;DHT22;11641;51.018;4.474;2023-04-15T04:03:35;11.10;99.90
22950;DHT22;11641;51.018;4.474;2023-04-15T04:06:03;11.10;99.90
22950;DHT22;11641;51.018;4.474;2023-04-15T04:08:29;11.10;99.90
22950;DHT22;11641;51.018;4.474;2023-04-15T04:10:56;11.20;99.90
22950;DHT22;11641;51.018;4.474;2023-04-15T04:13:22;11.20;99.90
22950;DHT22;11641;51.018;4.474;2023-04-15T04:15:48;11.20;99.90
22950;DHT22;11641;51.018;4.474;2023-04-15T04:18:13;11.10;99.90
22950;DHT22;11641;51.018;4.474;2023-04-15T04:20:39;10.90;99.90
22950;DHT22;11641;51.018;4.474;2023-04-15T04:23:05;10.90;99.90
22950;DHT22;11641;51.018;4.474;2023-04-15T04:25:31;10.80;99.90
22950;DHT22;11641;51.018;4.474;2023-04-15T04:27:58;10.70;99.90
22950;DHT22;11641;51.018;4.474;2023-04-15T04:30:23;10.50;99.90
22950;DHT22;11641;51.018;4.474;2023-04-15T04:32:49;10.20;99.90
22950;DHT22;11641;51.018;4.474;2023-04-15T04:35:16;10.20;99.90
22950;DHT22;11641;51.018;4.474;2023-04-15T04:37:43;10.30;99.90
22950;DHT22;11641;51.018;4.474;2023-04-15T04:40:12;10.50;99.90
22950;DHT22;11641;51.018;4.474;2023-04-15T04:42:38;10.60;99.90
22950;DHT22;11641;51.018;4.474;2023-04-15T04:45:04;10.70;99.90
22950;DHT22;11641;51.018;4.474;2023-04-15T04:47:32;10.60;99.90
22950;DHT22;11641;51.018;4.474;2023-04-15T04:49:58;10.50;99.90
22950;DHT22;11641;51.018;4.474;2023-04-15T04:52:23;10.60;99.90
22950;DHT22;11641;51.018;4.474;2023-04-15T04:54:49;10.60;99.90
22950;DHT22;11641;51.018;4.474;2023-04-15T04:57:15;10.70;99.90
22950;DHT22;11641;51.018;4.474;2023-04-15T04:59:40;10.80;99.90
22950;DHT22;11641;51.018;4.474;2023-04-15T05:02:06;10.90;99.90
22950;DHT22;11641;51.018;4.474;2023-04-15T05:04:32;11.00;99.90
22950;DHT22;11641;51.018;4.474;2023-04-15T05:06:57;11.00;99.90
22950;DHT22;11641;51.018;4.474;2023-04-15T05:09:24;11.00;99.90
22950;DHT22;11641;51.018;4.474;2023-04-15T05:11:51;10.90;99.90
22950;DHT22;11641;51.018;4.474;2023-04-15T05:14:17;11.10;99.90
22950;DHT22;11641;51.018;4.474;2023-04-15T05:16:43;11.10;99.90
22950;DHT22;11641;51.018;4.474;2023-04-15T05:19:08;11.00;99.90
22950;DHT22;11641;51.018;4.474;2023-04-15T05:21:34;11.10;99.90
22950;DHT22;11641;51.018;4.474;2023-04-15T05:24:00;11.10;99.90
22950;DHT22;11641;51.018;4.474;2023-04-15T05:26:30;11.20;99.90
22950;DHT22;11641;51.018;4.474;2023-04-15T05:28:58;11.30;99.90
22950;DHT22;11641;51.018;4.474;2023-04-15T05:31:24;11.30;99.90
22950;DHT22;11641;51.018;4.474;2023-04-15T05:33:50;11.30;99.90
22950;DHT22;11641;51.018;4.474;2023-04-15T05:36:15;11.30;99.90
22950;DHT22;11641;51.018;4.474;2023-04-15T05:38:43;11.30;99.90
22950;DHT22;11641;51.018;4.474;2023-04-15T05:41:09;11.30;99.90
22950;DHT22;11641;51.018;4.474;2023-04-15T05:43:34;11.30;99.90
22950;DHT22;11641;51.018;4.474;2023-04-15T05:46:00;11.40;99.90
22950;DHT22;11641;51.018;4.474;2023-04-15T05:48:26;11.60;99.90
22950;DHT22;11641;51.018;4.474;2023-04-15T05:50:51;11.60;99.90
22950;DHT22;11641;51.018;4.474;2023-04-15T05:53:17;11.60;99.90
22950;DHT22;11641;51.018;4.474;2023-04-15T05:55:45;11.70;99.90
22950;DHT22;11641;51.018;4.474;2023-04-15T05:58:11;11.50;99.90
22950;DHT22;11641;51.018;4.474;2023-04-15T06:00:39;11.50;99.90
22950;DHT22;11641;51.018;4.474;2023-04-15T06:03:05;11.70;99.90
22950;DHT22;11641;51.018;4.474;2023-04-15T06:05:32;11.70;99.90
22950;DHT22;11641;51.018;4.474;2023-04-15T06:08:00;11.70;99.90
22950;DHT22;11641;51.018;4.474;2023-04-15T06:10:26;11.90;99.90
22950;DHT22;11641;51.018;4.474;2023-04-15T06:12:56;11.90;99.90
22950;DHT22;11641;51.018;4.474;2023-04-15T06:15:22;12.00;99.90
22950;DHT22;11641;51.018;4.474;2023-04-15T06:17:47;12.10;99.90
22950;DHT22;11641;51.018;4.474;2023-04-15T06:20:13;12.20;99.90
22950;DHT22;11641;51.018;4.474;2023-04-15T06:22:39;12.30;99.90
22950;DHT22;11641;51.018;4.474;2023-04-15T06:25:05;12.40;99.90
22950;DHT22;11641;51.018;4.474;2023-04-15T06:27:35;12.50;99.90
22950;DHT22;11641;51.018;4.474;2023-04-15T06:30:00;12.40;99.90
22950;DHT22;11641;51.018;4.474;2023-04-15T06:32:26;12.50;99.90
22950;DHT22;11641;51.018;4.474;2023-04-15T06:34:52;12.70;99.90
22950;DHT22;11641;51.018;4.474;2023-04-15T06:37:17;12.80;99.90
22950;DHT22;11641;51.018;4.474;2023-04-15T06:39:45;12.90;99.90
22950;DHT22;11641;51.018;4.474;2023-04-15T06:42:11;13.00;99.90
22950;DHT22;11641;51.018;4.474;2023-04-15T06:44:37;12.80;99.90
22950;DHT22;11641;51.018;4.474;2023-04-15T06:47:03;12.80;99.90
22950;DHT22;11641;51.018;4.474;2023-04-15T06:49:28;12.90;99.90
22950;DHT22;11641;51.018;4.474;2023-04-15T06:51:54;12.80;99.90
22950;DHT22;11641;51.018;4.474;2023-04-15T06:54:20;12.80;99.90
22950;DHT22;11641;51.018;4.474;2023-04-15T06:56:46;12.90;99.90
22950;DHT22;11641;51.018;4.474;2023-04-15T06:59:14;13.00;99.90
22950;DHT22;11641;51.018;4.474;2023-04-15T07:01:40;13.20;99.90
22950;DHT22;11641;51.018;4.474;2023-04-15T07:04:06;13.30;99.90
22950;DHT22;11641;51.018;4.474;2023-04-15T07:06:32;13.50;99.90
22950;DHT22;11641;51.018;4.474;2023-04-15T07:08:58;13.60;99.90
22950;DHT22;11641;51.018;4.474;2023-04-15T07:11:26;13.60;99.90
22950;DHT22;11641;51.018;4.474;2023-04-15T07:13:54;13.70;99.90
22950;DHT22;11641;51.018;4.474;2023-04-15T07:16:20;13.40;99.90
22950;DHT22;11641;51.018;4.474;2023-04-15T07:18:46;13.30;99.90
22950;DHT22;11641;51.018;4.474;2023-04-15T07:21:13;13.30;99.90
22950;DHT22;11641;51.018;4.474;2023-04-15T07:23:42;13.40;99.90
22950;DHT22;11641;51.018;4.474;2023-04-15T07:26:08;13.30;99.90
22950;DHT22;11641;51.018;4.474;2023-04-15T07:28:33;13.20;99.90
22950;DHT22;11641;51.018;4.474;2023-04-15T07:30:59;13.00;99.90
22950;DHT22;11641;51.018;4.474;2023-04-15T07:33:25;12.70;99.90
22950;DHT22;11641;51.018;4.474;2023-04-15T07:35:51;12.80;99.90
22950;DHT22;11641;51.018;4.474;2023-04-15T07:38:16;12.70;99.90
22950;DHT22;11641;51.018;4.474;2023-04-15T07:40:42;12.90;99.90
22950;DHT22;11641;51.018;4.474;2023-04-15T07:43:08;13.10;99.90
22950;DHT22;11641;51.018;4.474;2023-04-15T07:45:34;13.30;99.90
22950;DHT22;11641;51.018;4.474;2023-04-15T07:48:03;13.30;99.90
22950;DHT22;11641;51.018;4.474;2023-04-15T07:50:29;13.30;99.90
22950;DHT22;11641;51.018;4.474;2023-04-15T07:52:54;13.40;99.90
22950;DHT22;11641;51.018;4.474;2023-04-15T07:55:22;13.30;99.90
22950;DHT22;11641;51.018;4.474;2023-04-15T07:57:49;13.50;99.90
22950;DHT22;11641;51.018;4.474;2023-04-15T08:00:17;13.60;99.90
22950;DHT22;11641;51.018;4.474;2023-04-15T08:02:45;13.70;99.90
22950;DHT22;11641;51.018;4.474;2023-04-15T08:05:12;13.80;99.90
22950;DHT22;11641;51.018;4.474;2023-04-15T08:07:39;13.90;99.90
22950;DHT22;11641;51.018;4.474;2023-04-15T08:10:06;13.90;99.90
22950;DHT22;11641;51.018;4.474;2023-04-15T08:12:31;13.80;99.90
22950;DHT22;11641;51.018;4.474;2023-04-15T08:14:57;14.00;99.90
22950;DHT22;11641;51.018;4.474;2023-04-15T08:17:26;14.40;99.90
22950;DHT22;11641;51.018;4.474;2023-04-15T08:19:52;14.80;99.90
22950;DHT22;11641;51.018;4.474;2023-04-15T08:22:18;15.30;99.90
22950;DHT22;11641;51.018;4.474;2023-04-15T08:24:44;15.70;99.90
22950;DHT22;11641;51.018;4.474;2023-04-15T08:27:12;16.40;99.90
22950;DHT22;11641;51.018;4.474;2023-04-15T08:29:37;17.00;99.90
22950;DHT22;11641;51.018;4.474;2023-04-15T08:32:05;17.50;99.90
22950;DHT22;11641;51.018;4.474;2023-04-15T08:34:35;17.80;99.90
22950;DHT22;11641;51.018;4.474;2023-04-15T08:37:01;18.40;99.90
22950;DHT22;11641;51.018;4.474;2023-04-15T08:39:27;18.80;99.90
22950;DHT22;11641;51.018;4.474;2023-04-15T08:42:15;19.30;99.90
22950;DHT22;11641;51.018;4.474;2023-04-15T08:44:45;19.60;99.90
22950;DHT22;11641;51.018;4.474;2023-04-15T08:47:12;19.80;99.10
22950;DHT22;11641;51.018;4.474;2023-04-15T08:49:39;19.80;98.40
22950;DHT22;11641;51.018;4.474;2023-04-15T08:52:06;19.70;98.30
22950;DHT22;11641;51.018;4.474;2023-04-15T08:54:33;19.60;97.80
22950;DHT22;11641;51.018;4.474;2023-04-15T08:56:59;19.40;97.00
22950;DHT22;11641;51.018;4.474;2023-04-15T08:59:24;19.10;98.90
22950;DHT22;11641;51.018;4.474;2023-04-15T09:01:50;18.80;99.30
22950;DHT22;11641;51.018;4.474;2023-04-15T09:04:16;18.80;99.90
22950;DHT22;11641;51.018;4.474;2023-04-15T09:06:46;18.80;99.90
22950;DHT22;11641;51.018;4.474;2023-04-15T09:09:11;18.80;99.90
22950;DHT22;11641;51.018;4.474;2023-04-15T09:11:38;18.70;99.20
22950;DHT22;11641;51.018;4.474;2023-04-15T09:14:05;18.50;99.70
22950;DHT22;11641;51.018;4.474;2023-04-15T09:16:30;18.70;99.20
22950;DHT22;11641;51.018;4.474;2023-04-15T09:18:56;18.80;97.60
22950;DHT22;11641;51.018;4.474;2023-04-15T09:21:22;18.80;97.90
22950;DHT22;11641;51.018;4.474;2023-04-15T09:23:58;18.90;97.90
22950;DHT22;11641;51.018;4.474;2023-04-15T09:26:36;18.90;97.60
22950;DHT22;11641;51.018;4.474;2023-04-15T09:29:08;19.10;98.30
22950;DHT22;11641;51.018;4.474;2023-04-15T09:31:35;19.60;97.40
22950;DHT22;11641;51.018;4.474;2023-04-15T09:34:01;20.30;95.00
22950;DHT22;11641;51.018;4.474;2023-04-15T09:36:27;20.60;92.70
22950;DHT22;11641;51.018;4.474;2023-04-15T09:38:59;21.00;92.60
22950;DHT22;11641;51.018;4.474;2023-04-15T09:41:25;21.50;90.70
22950;DHT22;11641;51.018;4.474;2023-04-15T09:43:51;22.30;87.70
22950;DHT22;11641;51.018;4.474;2023-04-15T09:46:17;22.70;85.80
22950;DHT22;11641;51.018;4.474;2023-04-15T09:48:43;23.50;80.20
22950;DHT22;11641;51.018;4.474;2023-04-15T09:51:09;24.30;80.20
22950;DHT22;11641;51.018;4.474;2023-04-15T09:53:37;25.00;76.00
22950;DHT22;11641;51.018;4.474;2023-04-15T09:56:03;25.70;73.40
22950;DHT22;11641;51.018;4.474;2023-04-15T09:58:34;26.30;65.70
22950;DHT22;11641;51.018;4.474;2023-04-15T10:01:05;26.80;64.80
22950;DHT22;11641;51.018;4.474;2023-04-15T10:03:34;27.50;61.30
22950;DHT22;11641;51.018;4.474;2023-04-15T10:06:03;27.90;59.10
22950;DHT22;11641;51.018;4.474;2023-04-15T10:08:33;28.80;57.30
22950;DHT22;11641;51.018;4.474;2023-04-15T10:11:02;29.40;55.20
22950;DHT22;11641;51.018;4.474;2023-04-15T10:13:30;30.20;51.90
22950;DHT22;11641;51.018;4.474;2023-04-15T10:16:13;30.70;50.00
22950;DHT22;11641;51.018;4.474;2023-04-15T10:18:43;31.90;47.60
22950;DHT22;11641;51.018;4.474;2023-04-15T10:21:13;32.90;46.10
22950;DHT22;11641;51.018;4.474;2023-04-15T10:23:46;33.50;45.50
22950;DHT22;11641;51.018;4.474;2023-04-15T10:26:12;34.30;43.40
22950;DHT22;11641;51.018;4.474;2023-04-15T10:28:46;34.90;43.10
22950;DHT22;11641;51.018;4.474;2023-04-15T10:31:14;35.20;40.70
22950;DHT22;11641;51.018;4.474;2023-04-15T10:33:45;35.90;38.60
22950;DHT22;11641;51.018;4.474;2023-04-15T10:36:11;35.90;37.30
22950;DHT22;11641;51.018;4.474;2023-04-15T10:38:41;35.60;37.10
22950;DHT22;11641;51.018;4.474;2023-04-15T10:41:28;35.20;37.80
22950;DHT22;11641;51.018;4.474;2023-04-15T10:43:59;35.80;38.30
22950;DHT22;11641;51.018;4.474;2023-04-15T10:46:44;35.80;36.50
22950;DHT22;11641;51.018;4.474;2023-04-15T10:49:15;36.00;37.50
22950;DHT22;11641;51.018;4.474;2023-04-15T10:51:46;36.30;36.10
22950;DHT22;11641;51.018;4.474;2023-04-15T10:59:35;36.10;33.10
22950;DHT22;11641;51.018;4.474;2023-04-15T11:02:02;35.20;32.10
22950;DHT22;11641;51.018;4.474;2023-04-15T11:04:57;35.50;32.50
22950;DHT22;11641;51.018;4.474;2023-04-15T11:07:56;35.80;32.20
22950;DHT22;11641;51.018;4.474;2023-04-15T11:13:13;37.20;30.80
22950;DHT22;11641;51.018;4.474;2023-04-15T11:15:45;37.30;32.10
22950;DHT22;11641;51.018;4.474;2023-04-15T11:18:25;37.30;32.50
22950;DHT22;11641;51.018;4.474;2023-04-15T11:20:52;37.90;32.70
22950;DHT22;11641;51.018;4.474;2023-04-15T11:25:58;38.50;30.40
22950;DHT22;11641;51.018;4.474;2023-04-15T11:28:28;36.70;31.40
22950;DHT22;11641;51.018;4.474;2023-04-15T11:30:54;34.90;31.10
22950;DHT22;11641;51.018;4.474;2023-04-15T11:33:21;34.90;32.10
22950;DHT22;11641;51.018;4.474;2023-04-15T11:35:47;34.20;32.70
22950;DHT22;11641;51.018;4.474;2023-04-15T11:38:14;34.30;32.80
22950;DHT22;11641;51.018;4.474;2023-04-15T11:40:40;35.60;32.30
22950;DHT22;11641;51.018;4.474;2023-04-15T11:43:18;36.50;31.50
22950;DHT22;11641;51.018;4.474;2023-04-15T11:45:55;37.50;31.60
22950;DHT22;11641;51.018;4.474;2023-04-15T11:48:28;38.40;31.60
22950;DHT22;11641;51.018;4.474;2023-04-15T11:50:59;39.00;29.40
22950;DHT22;11641;51.018;4.474;2023-04-15T11:53:48;37.30;30.30
22950;DHT22;11641;51.018;4.474;2023-04-15T11:56:24;36.00;30.90
22950;DHT22;11641;51.018;4.474;2023-04-15T11:58:55;36.20;32.00
22950;DHT22;11641;51.018;4.474;2023-04-15T12:01:39;36.40;30.70
22950;DHT22;11641;51.018;4.474;2023-04-15T12:04:17;37.50;30.00
22950;DHT22;11641;51.018;4.474;2023-04-15T12:06:47;36.40;29.90
22950;DHT22;11641;51.018;4.474;2023-04-15T12:09:17;37.30;30.60
22950;DHT22;11641;51.018;4.474;2023-04-15T12:11:49;37.40;29.60
22950;DHT22;11641;51.018;4.474;2023-04-15T12:17:04;37.60;29.40
22950;DHT22;11641;51.018;4.474;2023-04-15T12:19:33;38.20;29.70
22950;DHT22;11641;51.018;4.474;2023-04-15T12:22:07;38.90;28.70
22950;DHT22;11641;51.018;4.474;2023-04-15T12:24:34;38.90;28.40
22950;DHT22;11641;51.018;4.474;2023-04-15T12:27:08;37.60;29.90
22950;DHT22;11641;51.018;4.474;2023-04-15T12:29:38;37.30;29.80
22950;DHT22;11641;51.018;4.474;2023-04-15T12:32:05;36.70;31.40
22950;DHT22;11641;51.018;4.474;2023-04-15T12:34:51;36.70;31.20
22950;DHT22;11641;51.018;4.474;2023-04-15T12:37:16;37.40;30.50
22950;DHT22;11641;51.018;4.474;2023-04-15T12:39:46;37.00;30.20
22950;DHT22;11641;51.018;4.474;2023-04-15T12:42:17;37.40;29.70
22950;DHT22;11641;51.018;4.474;2023-04-15T12:44:42;37.90;29.90
22950;DHT22;11641;51.018;4.474;2023-04-15T12:47:09;39.20;29.40
22950;DHT22;11641;51.018;4.474;2023-04-15T12:49:35;40.00;28.40
22950;DHT22;11641;51.018;4.474;2023-04-15T12:52:04;41.30;28.30
22950;DHT22;11641;51.018;4.474;2023-04-15T12:54:30;41.50;28.60
22950;DHT22;11641;51.018;4.474;2023-04-15T12:56:57;41.80;27.40
22950;DHT22;11641;51.018;4.474;2023-04-15T12:59:23;41.70;28.40
22950;DHT22;11641;51.018;4.474;2023-04-15T13:01:52;40.90;28.30
22950;DHT22;11641;51.018;4.474;2023-04-15T13:04:19;38.50;29.90
22950;DHT22;11641;51.018;4.474;2023-04-15T13:06:44;36.60;30.00
22950;DHT22;11641;51.018;4.474;2023-04-15T13:09:12;33.20;33.30
22950;DHT22;11641;51.018;4.474;2023-04-15T13:11:40;33.90;34.00
22950;DHT22;11641;51.018;4.474;2023-04-15T13:14:08;35.60;31.80
22950;DHT22;11641;51.018;4.474;2023-04-15T13:16:35;34.10;31.40
22950;DHT22;11641;51.018;4.474;2023-04-15T13:19:04;33.50;32.10
22950;DHT22;11641;51.018;4.474;2023-04-15T13:21:30;32.90;33.90
22950;DHT22;11641;51.018;4.474;2023-04-15T13:23:59;35.00;34.00
22950;DHT22;11641;51.018;4.474;2023-04-15T13:26:25;36.00;30.50
22950;DHT22;11641;51.018;4.474;2023-04-15T13:28:50;36.00;31.30
22950;DHT22;11641;51.018;4.474;2023-04-15T13:31:17;36.30;29.30
22950;DHT22;11641;51.018;4.474;2023-04-15T13:33:43;36.00;30.50
22950;DHT22;11641;51.018;4.474;2023-04-15T13:36:09;35.50;31.70
22950;DHT22;11641;51.018;4.474;2023-04-15T13:38:34;36.00;32.40
22950;DHT22;11641;51.018;4.474;2023-04-15T13:41:00;36.40;30.40
22950;DHT22;11641;51.018;4.474;2023-04-15T13:43:26;36.30;30.60
22950;DHT22;11641;51.018;4.474;2023-04-15T13:45:51;36.90;32.20
22950;DHT22;11641;51.018;4.474;2023-04-15T13:48:22;37.60;30.10
22950;DHT22;11641;51.018;4.474;2023-04-15T13:50:48;38.10;29.90
22950;DHT22;11641;51.018;4.474;2023-04-15T13:53:16;37.40;29.80
22950;DHT22;11641;51.018;4.474;2023-04-15T13:55:43;36.20;30.30
22950;DHT22;11641;51.018;4.474;2023-04-15T13:58:11;36.40;29.20
22950;DHT22;11641;51.018;4.474;2023-04-15T14:00:39;36.90;29.50
22950;DHT22;11641;51.018;4.474;2023-04-15T14:03:05;37.00;29.80
22950;DHT22;11641;51.018;4.474;2023-04-15T14:05:31;37.50;29.70
22950;DHT22;11641;51.018;4.474;2023-04-15T14:07:58;37.00;29.70
22950;DHT22;11641;51.018;4.474;2023-04-15T14:10:24;37.00;28.80
22950;DHT22;11641;51.018;4.474;2023-04-15T14:12:49;36.60;28.50
22950;DHT22;11641;51.018;4.474;2023-04-15T14:15:15;37.50;29.30
22950;DHT22;11641;51.018;4.474;2023-04-15T14:17:44;38.10;29.90
22950;DHT22;11641;51.018;4.474;2023-04-15T14:20:10;38.30;29.00
22950;DHT22;11641;51.018;4.474;2023-04-15T14:22:36;38.00;29.60
22950;DHT22;11641;51.018;4.474;2023-04-15T14:25:04;38.20;30.20
22950;DHT22;11641;51.018;4.474;2023-04-15T14:27:32;39.10;30.10
22950;DHT22;11641;51.018;4.474;2023-04-15T14:29:58;39.10;30.00
22950;DHT22;11641;51.018;4.474;2023-04-15T14:32:24;40.00;29.30
22950;DHT22;11641;51.018;4.474;2023-04-15T14:34:55;37.20;30.60
22950;DHT22;11641;51.018;4.474;2023-04-15T14:37:23;36.80;31.30
22950;DHT22;11641;51.018;4.474;2023-04-15T14:39:48;37.00;32.50
22950;DHT22;11641;51.018;4.474;2023-04-15T14:42:16;35.80;32.20
22950;DHT22;11641;51.018;4.474;2023-04-15T14:44:42;34.00;35.30
22950;DHT22;11641;51.018;4.474;2023-04-15T14:47:09;31.90;36.50
22950;DHT22;11641;51.018;4.474;2023-04-15T14:49:35;29.70;39.20
22950;DHT22;11641;51.018;4.474;2023-04-15T14:52:00;29.50;40.50
22950;DHT22;11641;51.018;4.474;2023-04-15T14:54:26;28.40;41.00
22950;DHT22;11641;51.018;4.474;2023-04-15T14:56:54;27.40;43.30
22950;DHT22;11641;51.018;4.474;2023-04-15T14:59:22;28.10;44.30
22950;DHT22;11641;51.018;4.474;2023-04-15T15:01:47;29.60;41.20
22950;DHT22;11641;51.018;4.474;2023-04-15T15:04:16;31.30;40.10
22950;DHT22;11641;51.018;4.474;2023-04-15T15:06:44;32.30;39.10
22950;DHT22;11641;51.018;4.474;2023-04-15T15:09:12;34.90;36.90
22950;DHT22;11641;51.018;4.474;2023-04-15T15:11:37;36.10;34.10
22950;DHT22;11641;51.018;4.474;2023-04-15T15:14:03;35.30;34.00
22950;DHT22;11641;51.018;4.474;2023-04-15T15:16:29;33.70;36.20
22950;DHT22;11641;51.018;4.474;2023-04-15T15:18:54;33.80;37.20
22950;DHT22;11641;51.018;4.474;2023-04-15T15:21:20;34.20;37.30
22950;DHT22;11641;51.018;4.474;2023-04-15T15:23:46;35.10;34.70
22950;DHT22;11641;51.018;4.474;2023-04-15T15:26:13;34.20;36.20
22950;DHT22;11641;51.018;4.474;2023-04-15T15:28:38;33.90;34.60
22950;DHT22;11641;51.018;4.474;2023-04-15T15:31:04;34.80;35.00
22950;DHT22;11641;51.018;4.474;2023-04-15T15:33:30;35.20;33.10
22950;DHT22;11641;51.018;4.474;2023-04-15T15:35:57;35.10;32.50
22950;DHT22;11641;51.018;4.474;2023-04-15T15:38:25;31.40;33.40
22950;DHT22;11641;51.018;4.474;2023-04-15T15:40:50;29.90;37.10
22950;DHT22;11641;51.018;4.474;2023-04-15T15:43:16;30.60;37.70
22950;DHT22;11641;51.018;4.474;2023-04-15T15:45:42;31.50;36.30